BAW903 EDDF-EGLL
Flight info
| Callsign | BAW903 |
|---|---|
| Flight time | 1h 12m |
| Altitude | 24000 |
| Route | SOBRA1F SOBRA Y180 BITBU Y181 DEMUL M624 BUB L608 SASKI DCT XAMAN L980 LOGAN LOGAN2H |
| Aircraft | A320/M-SDE3FGHIRWY/LB1 |
Departure
| Time | 2026-05-07 13:37 |
|---|---|
| Airport | Frankfurt Main Airport (EDDF) |
Arrival
| Time | 2026-05-07 14:49 |
|---|---|
| Airport | London Heathrow Airport (EGLL) |
| Time | Latitude | Longitude | Altitude | Speed | Heading |
|---|---|---|---|---|---|
| 2026-05-07 12:57 | 50.04901 | 8.58796 | 362 ft | 0 kts | 160° |
| 2026-05-07 13:21 | 50.04909 | 8.58791 | 365 ft | 4 kts | 160° |
| 2026-05-07 13:21 | 50.04930 | 8.58779 | 363 ft | 4 kts | 165° |
| 2026-05-07 13:21 | 50.04951 | 8.58780 | 360 ft | 4 kts | 229° |
| 2026-05-07 13:22 | 50.04961 | 8.58807 | 364 ft | 4 kts | 250° |
| 2026-05-07 13:22 | 50.04966 | 8.58830 | 364 ft | 1 kts | 250° |
| 2026-05-07 13:22 | 50.04967 | 8.58830 | 364 ft | 1 kts | 250° |
| 2026-05-07 13:24 | 50.04957 | 8.58790 | 362 ft | 9 kts | 250° |
| 2026-05-07 13:25 | 50.04929 | 8.58697 | 360 ft | 7 kts | 222° |
| 2026-05-07 13:25 | 50.04907 | 8.58685 | 361 ft | 6 kts | 190° |
| 2026-05-07 13:25 | 50.04862 | 8.58691 | 362 ft | 6 kts | 166° |
| 2026-05-07 13:25 | 50.04825 | 8.58715 | 364 ft | 5 kts | 157° |
| 2026-05-07 13:26 | 50.04789 | 8.58739 | 366 ft | 7 kts | 157° |
| 2026-05-07 13:26 | 50.04766 | 8.58753 | 369 ft | 0 kts | 159° |
| 2026-05-07 13:26 | 50.04762 | 8.58755 | 368 ft | 4 kts | 162° |
| 2026-05-07 13:26 | 50.04709 | 8.58703 | 368 ft | 12 kts | 238° |
| 2026-05-07 13:27 | 50.04675 | 8.58567 | 369 ft | 15 kts | 250° |
| 2026-05-07 13:27 | 50.04636 | 8.58404 | 371 ft | 17 kts | 249° |
| 2026-05-07 13:27 | 50.04592 | 8.58216 | 368 ft | 19 kts | 250° |
| 2026-05-07 13:27 | 50.04574 | 8.58068 | 367 ft | 14 kts | 289° |
| 2026-05-07 13:28 | 50.04655 | 8.57992 | 361 ft | 12 kts | 341° |
| 2026-05-07 13:28 | 50.04707 | 8.57894 | 358 ft | 14 kts | 262° |
| 2026-05-07 13:28 | 50.04669 | 8.57739 | 363 ft | 17 kts | 249° |
| 2026-05-07 13:28 | 50.04630 | 8.57574 | 358 ft | 17 kts | 250° |
| 2026-05-07 13:29 | 50.04587 | 8.57390 | 359 ft | 18 kts | 249° |
| 2026-05-07 13:29 | 50.04548 | 8.57229 | 360 ft | 17 kts | 249° |
| 2026-05-07 13:29 | 50.04504 | 8.57048 | 358 ft | 17 kts | 249° |
| 2026-05-07 13:29 | 50.04473 | 8.56919 | 363 ft | 13 kts | 250° |
| 2026-05-07 13:30 | 50.04440 | 8.56779 | 362 ft | 15 kts | 250° |
| 2026-05-07 13:30 | 50.04399 | 8.56606 | 358 ft | 19 kts | 250° |
| 2026-05-07 13:30 | 50.04350 | 8.56401 | 361 ft | 22 kts | 249° |
| 2026-05-07 13:30 | 50.04303 | 8.56207 | 359 ft | 16 kts | 250° |
| 2026-05-07 13:31 | 50.04265 | 8.56047 | 358 ft | 16 kts | 249° |
| 2026-05-07 13:31 | 50.04224 | 8.55875 | 358 ft | 19 kts | 250° |
| 2026-05-07 13:31 | 50.04175 | 8.55671 | 356 ft | 21 kts | 249° |
| 2026-05-07 13:31 | 50.04120 | 8.55444 | 357 ft | 22 kts | 249° |
| 2026-05-07 13:32 | 50.04064 | 8.55211 | 359 ft | 23 kts | 250° |
| 2026-05-07 13:32 | 50.04021 | 8.55023 | 359 ft | 18 kts | 250° |
| 2026-05-07 13:32 | 50.03974 | 8.54823 | 353 ft | 21 kts | 250° |
| 2026-05-07 13:32 | 50.03928 | 8.54634 | 352 ft | 15 kts | 248° |
| 2026-05-07 13:33 | 50.03886 | 8.54464 | 352 ft | 19 kts | 249° |
| 2026-05-07 13:33 | 50.03827 | 8.54294 | 351 ft | 16 kts | 234° |
| 2026-05-07 13:33 | 50.03776 | 8.54121 | 349 ft | 19 kts | 249° |
| 2026-05-07 13:33 | 50.03726 | 8.53912 | 345 ft | 22 kts | 249° |
| 2026-05-07 13:34 | 50.03676 | 8.53706 | 348 ft | 20 kts | 249° |
| 2026-05-07 13:34 | 50.03572 | 8.53286 | 335 ft | 16 kts | 249° |
| 2026-05-07 13:34 | 50.03532 | 8.53119 | 335 ft | 17 kts | 249° |
| 2026-05-07 13:35 | 50.03485 | 8.52928 | 333 ft | 20 kts | 249° |
| 2026-05-07 13:35 | 50.03437 | 8.52737 | 333 ft | 17 kts | 248° |
| 2026-05-07 13:35 | 50.03383 | 8.52609 | 333 ft | 10 kts | 212° |
| 2026-05-07 13:35 | 50.03308 | 8.52593 | 335 ft | 13 kts | 180° |
| 2026-05-07 13:36 | 50.03118 | 8.52593 | 334 ft | 56 kts | 179° |
| 2026-05-07 13:36 | 50.02507 | 8.52602 | 335 ft | 116 kts | 179° |
| 2026-05-07 13:36 | 50.01536 | 8.52610 | 338 ft | 161 kts | 180° |
| 2026-05-07 13:36 | 50.00377 | 8.52653 | 847 ft | 169 kts | 179° |
| 2026-05-07 13:37 | 49.99182 | 8.52731 | 1525 ft | 176 kts | 179° |
| 2026-05-07 13:37 | 49.97897 | 8.52827 | 1975 ft | 195 kts | 178° |
| 2026-05-07 13:37 | 49.96478 | 8.52946 | 2427 ft | 213 kts | 178° |
| 2026-05-07 13:37 | 49.94943 | 8.53088 | 2903 ft | 231 kts | 178° |
| 2026-05-07 13:38 | 49.93282 | 8.53211 | 3601 ft | 242 kts | 179° |
| 2026-05-07 13:38 | 49.91615 | 8.53301 | 4671 ft | 238 kts | 179° |
| 2026-05-07 13:38 | 49.89952 | 8.53381 | 5607 ft | 240 kts | 180° |
| 2026-05-07 13:38 | 49.88268 | 8.53456 | 6506 ft | 244 kts | 182° |
| 2026-05-07 13:39 | 49.86580 | 8.53079 | 7198 ft | 253 kts | 199° |
| 2026-05-07 13:39 | 49.84853 | 8.52118 | 7631 ft | 273 kts | 202° |
| 2026-05-07 13:39 | 49.83070 | 8.51098 | 8360 ft | 280 kts | 202° |
| 2026-05-07 13:39 | 49.81226 | 8.50047 | 9225 ft | 284 kts | 202° |
| 2026-05-07 13:40 | 49.79364 | 8.48948 | 10051 ft | 288 kts | 207° |
| 2026-05-07 13:40 | 49.78186 | 8.47843 | 10292 ft | 300 kts | 221° |
| 2026-05-07 13:40 | 49.76516 | 8.44269 | 10570 ft | 326 kts | 251° |
| 2026-05-07 13:40 | 49.76177 | 8.40754 | 10969 ft | 337 kts | 275° |
| 2026-05-07 13:41 | 49.76632 | 8.37185 | 11607 ft | 341 kts | 284° |
| 2026-05-07 13:41 | 49.77018 | 8.34775 | 12076 ft | 343 kts | 284° |
| 2026-05-07 13:41 | 49.77597 | 8.31170 | 12738 ft | 347 kts | 284° |
| 2026-05-07 13:41 | 49.78173 | 8.27570 | 12988 ft | 348 kts | 284° |
| 2026-05-07 13:42 | 49.78760 | 8.23909 | 13541 ft | 352 kts | 284° |
| 2026-05-07 13:42 | 49.79352 | 8.20221 | 14072 ft | 354 kts | 284° |
| 2026-05-07 13:42 | 49.79947 | 8.16511 | 14566 ft | 357 kts | 284° |
| 2026-05-07 13:42 | 49.80541 | 8.12806 | 15186 ft | 360 kts | 284° |
| 2026-05-07 13:43 | 49.81152 | 8.08979 | 15818 ft | 363 kts | 284° |
| 2026-05-07 13:43 | 49.81749 | 8.05217 | 16419 ft | 366 kts | 284° |
| 2026-05-07 13:43 | 49.82357 | 8.01373 | 17028 ft | 369 kts | 283° |
| 2026-05-07 13:43 | 49.82968 | 7.97488 | 17632 ft | 372 kts | 283° |
| 2026-05-07 13:44 | 49.83583 | 7.93581 | 18237 ft | 375 kts | 283° |
| 2026-05-07 13:44 | 49.84202 | 7.89631 | 18782 ft | 378 kts | 283° |
| 2026-05-07 13:44 | 49.84822 | 7.85647 | 19320 ft | 381 kts | 283° |
| 2026-05-07 13:44 | 49.85446 | 7.81625 | 19856 ft | 384 kts | 283° |
| 2026-05-07 13:45 | 49.86072 | 7.77584 | 20389 ft | 387 kts | 283° |
| 2026-05-07 13:45 | 49.86709 | 7.73510 | 20916 ft | 390 kts | 283° |
| 2026-05-07 13:45 | 49.87356 | 7.69409 | 21417 ft | 393 kts | 283° |
| 2026-05-07 13:45 | 49.87995 | 7.65331 | 21890 ft | 396 kts | 283° |
| 2026-05-07 13:46 | 49.88643 | 7.61172 | 22376 ft | 398 kts | 283° |
| 2026-05-07 13:46 | 49.89297 | 7.56967 | 22844 ft | 402 kts | 283° |
| 2026-05-07 13:46 | 49.89950 | 7.52745 | 23306 ft | 405 kts | 283° |
| 2026-05-07 13:46 | 49.90608 | 7.48469 | 23766 ft | 407 kts | 283° |
| 2026-05-07 13:47 | 49.91264 | 7.44177 | 23990 ft | 409 kts | 283° |
| 2026-05-07 13:47 | 49.91926 | 7.39846 | 24043 ft | 417 kts | 283° |
| 2026-05-07 13:47 | 49.92598 | 7.35433 | 24058 ft | 422 kts | 283° |
| 2026-05-07 13:47 | 49.93273 | 7.30983 | 24056 ft | 423 kts | 283° |
| 2026-05-07 13:48 | 49.93390 | 7.30212 | 24057 ft | 423 kts | 283° |
| 2026-05-07 13:48 | 49.93895 | 7.26862 | 24055 ft | 424 kts | 283° |
| 2026-05-07 13:48 | 49.94565 | 7.22402 | 24058 ft | 424 kts | 283° |
| 2026-05-07 13:49 | 49.95234 | 7.17960 | 24057 ft | 424 kts | 283° |
| 2026-05-07 13:49 | 49.95903 | 7.13508 | 24058 ft | 424 kts | 283° |
| 2026-05-07 13:49 | 49.95911 | 7.13461 | 24058 ft | 424 kts | 283° |
| 2026-05-07 13:49 | 49.96264 | 7.11109 | 24057 ft | 424 kts | 283° |
| 2026-05-07 13:50 | 49.96924 | 7.06703 | 24056 ft | 425 kts | 283° |
| 2026-05-07 13:50 | 49.97599 | 7.02173 | 24055 ft | 424 kts | 283° |
| 2026-05-07 13:50 | 49.98250 | 6.97767 | 24046 ft | 424 kts | 283° |
| 2026-05-07 13:50 | 49.98897 | 6.93292 | 24048 ft | 424 kts | 280° |
| 2026-05-07 13:51 | 49.99225 | 6.88747 | 24047 ft | 423 kts | 271° |
| 2026-05-07 13:51 | 49.99143 | 6.84174 | 24040 ft | 423 kts | 267° |
| 2026-05-07 13:51 | 49.99001 | 6.79588 | 24044 ft | 423 kts | 267° |
| 2026-05-07 13:51 | 49.98865 | 6.75034 | 24049 ft | 423 kts | 267° |
| 2026-05-07 13:52 | 49.98729 | 6.70470 | 24050 ft | 423 kts | 267° |
| 2026-05-07 13:52 | 49.98590 | 6.65914 | 24051 ft | 422 kts | 267° |
| 2026-05-07 13:52 | 49.98452 | 6.61349 | 24048 ft | 422 kts | 267° |
| 2026-05-07 13:52 | 49.98313 | 6.56791 | 24051 ft | 422 kts | 267° |
| 2026-05-07 13:53 | 49.98170 | 6.52229 | 24035 ft | 422 kts | 267° |
| 2026-05-07 13:53 | 49.98032 | 6.47740 | 24034 ft | 422 kts | 267° |
| 2026-05-07 13:53 | 49.97891 | 6.43189 | 24034 ft | 422 kts | 267° |
| 2026-05-07 13:53 | 49.97745 | 6.38624 | 24033 ft | 422 kts | 267° |
| 2026-05-07 13:54 | 49.97597 | 6.34066 | 24049 ft | 421 kts | 266° |
| 2026-05-07 13:54 | 49.97446 | 6.29517 | 24053 ft | 421 kts | 266° |
| 2026-05-07 13:54 | 49.97291 | 6.24981 | 24054 ft | 420 kts | 266° |
| 2026-05-07 13:54 | 49.97132 | 6.20453 | 24047 ft | 420 kts | 266° |
| 2026-05-07 13:55 | 49.96974 | 6.15930 | 24059 ft | 419 kts | 266° |
| 2026-05-07 13:55 | 49.96811 | 6.11410 | 24055 ft | 419 kts | 266° |
| 2026-05-07 13:55 | 49.96663 | 6.06886 | 24054 ft | 419 kts | 269° |
| 2026-05-07 13:55 | 49.96963 | 6.02384 | 24050 ft | 420 kts | 282° |
| 2026-05-07 13:56 | 49.97888 | 5.98135 | 24050 ft | 421 kts | 293° |
| 2026-05-07 13:56 | 49.99336 | 5.94168 | 24049 ft | 423 kts | 303° |
| 2026-05-07 13:56 | 50.01201 | 5.90621 | 24045 ft | 425 kts | 313° |
| 2026-05-07 13:56 | 50.03316 | 5.87413 | 24044 ft | 426 kts | 314° |
| 2026-05-07 13:57 | 50.05450 | 5.84199 | 24055 ft | 426 kts | 314° |
| 2026-05-07 13:57 | 50.07583 | 5.80988 | 24052 ft | 427 kts | 314° |
| 2026-05-07 13:57 | 50.09723 | 5.77776 | 24051 ft | 427 kts | 314° |
| 2026-05-07 13:57 | 50.11868 | 5.74563 | 24051 ft | 427 kts | 314° |
| 2026-05-07 13:58 | 50.14008 | 5.71350 | 24051 ft | 427 kts | 314° |
| 2026-05-07 13:58 | 50.16145 | 5.68129 | 24054 ft | 427 kts | 314° |
| 2026-05-07 13:58 | 50.18282 | 5.64900 | 24054 ft | 427 kts | 314° |
| 2026-05-07 13:58 | 50.20417 | 5.61667 | 24056 ft | 427 kts | 314° |
| 2026-05-07 13:59 | 50.22549 | 5.58435 | 24056 ft | 427 kts | 314° |
| 2026-05-07 13:59 | 50.24655 | 5.55245 | 24057 ft | 427 kts | 314° |
| 2026-05-07 13:59 | 50.26790 | 5.52013 | 24060 ft | 427 kts | 314° |
| 2026-05-07 13:59 | 50.28926 | 5.48769 | 24059 ft | 427 kts | 314° |
| 2026-05-07 14:00 | 50.31066 | 5.45516 | 24065 ft | 428 kts | 314° |
| 2026-05-07 14:00 | 50.33199 | 5.42271 | 24063 ft | 428 kts | 314° |
| 2026-05-07 14:00 | 50.35331 | 5.39022 | 24064 ft | 428 kts | 314° |
| 2026-05-07 14:00 | 50.37461 | 5.35768 | 24064 ft | 428 kts | 314° |
| 2026-05-07 14:01 | 50.39588 | 5.32511 | 24065 ft | 428 kts | 314° |
| 2026-05-07 14:01 | 50.41720 | 5.29246 | 24066 ft | 428 kts | 314° |
| 2026-05-07 14:01 | 50.43849 | 5.25984 | 24067 ft | 428 kts | 314° |
| 2026-05-07 14:01 | 50.45982 | 5.22718 | 24068 ft | 428 kts | 314° |
| 2026-05-07 14:02 | 50.48110 | 5.19453 | 24069 ft | 428 kts | 314° |
| 2026-05-07 14:02 | 50.50239 | 5.16180 | 24073 ft | 428 kts | 314° |
| 2026-05-07 14:02 | 50.52366 | 5.12894 | 24074 ft | 428 kts | 314° |
| 2026-05-07 14:02 | 50.54489 | 5.09611 | 24081 ft | 428 kts | 314° |
| 2026-05-07 14:03 | 50.56619 | 5.06316 | 24081 ft | 428 kts | 314° |
| 2026-05-07 14:03 | 50.58742 | 5.03033 | 24087 ft | 428 kts | 314° |
| 2026-05-07 14:03 | 50.60837 | 4.99787 | 24087 ft | 428 kts | 314° |
| 2026-05-07 14:03 | 50.62964 | 4.96484 | 24085 ft | 428 kts | 314° |
| 2026-05-07 14:04 | 50.65091 | 4.93179 | 24084 ft | 428 kts | 314° |
| 2026-05-07 14:04 | 50.67208 | 4.89885 | 24084 ft | 428 kts | 314° |
| 2026-05-07 14:04 | 50.69330 | 4.86585 | 24082 ft | 428 kts | 314° |
| 2026-05-07 14:04 | 50.71452 | 4.83279 | 24084 ft | 428 kts | 314° |
| 2026-05-07 14:05 | 50.73568 | 4.79976 | 24084 ft | 428 kts | 314° |
| 2026-05-07 14:05 | 50.75688 | 4.76662 | 24084 ft | 428 kts | 314° |
| 2026-05-07 14:05 | 50.77803 | 4.73352 | 24083 ft | 428 kts | 314° |
| 2026-05-07 14:05 | 50.79917 | 4.70041 | 24088 ft | 428 kts | 314° |
| 2026-05-07 14:06 | 50.82031 | 4.66730 | 24099 ft | 428 kts | 313° |
| 2026-05-07 14:06 | 50.84122 | 4.63452 | 24094 ft | 428 kts | 313° |
| 2026-05-07 14:06 | 50.86258 | 4.60090 | 24091 ft | 428 kts | 313° |
| 2026-05-07 14:06 | 50.88365 | 4.56764 | 24089 ft | 428 kts | 313° |
| 2026-05-07 14:07 | 50.90341 | 4.53246 | 24086 ft | 426 kts | 305° |
| 2026-05-07 14:07 | 50.91969 | 4.49324 | 24084 ft | 425 kts | 300° |
| 2026-05-07 14:07 | 50.93502 | 4.45326 | 24083 ft | 425 kts | 300° |
| 2026-05-07 14:07 | 50.95041 | 4.41321 | 24082 ft | 425 kts | 300° |
| 2026-05-07 14:08 | 50.96578 | 4.37313 | 24080 ft | 425 kts | 300° |
| 2026-05-07 14:08 | 50.98090 | 4.33356 | 24083 ft | 425 kts | 300° |
| 2026-05-07 14:08 | 50.99624 | 4.29341 | 24080 ft | 425 kts | 300° |
| 2026-05-07 14:08 | 51.01158 | 4.25330 | 24081 ft | 425 kts | 300° |
| 2026-05-07 14:09 | 51.02691 | 4.21311 | 24074 ft | 425 kts | 300° |
| 2026-05-07 14:09 | 51.04219 | 4.17298 | 24076 ft | 425 kts | 300° |
| 2026-05-07 14:09 | 51.05748 | 4.13282 | 24074 ft | 425 kts | 300° |
| 2026-05-07 14:09 | 51.07277 | 4.09262 | 24075 ft | 425 kts | 300° |
| 2026-05-07 14:10 | 51.08804 | 4.05238 | 24073 ft | 425 kts | 300° |
| 2026-05-07 14:10 | 51.10329 | 4.01211 | 24074 ft | 425 kts | 299° |
| 2026-05-07 14:10 | 51.11850 | 3.97178 | 24072 ft | 425 kts | 299° |
| 2026-05-07 14:10 | 51.13366 | 3.93144 | 24074 ft | 425 kts | 299° |
| 2026-05-07 14:11 | 51.14882 | 3.89104 | 24071 ft | 425 kts | 299° |
| 2026-05-07 14:11 | 51.16400 | 3.85064 | 24073 ft | 425 kts | 299° |
| 2026-05-07 14:11 | 51.17917 | 3.81021 | 24076 ft | 425 kts | 299° |
| 2026-05-07 14:11 | 51.19433 | 3.76970 | 24071 ft | 425 kts | 299° |
| 2026-05-07 14:12 | 51.20946 | 3.72915 | 24074 ft | 425 kts | 299° |
| 2026-05-07 14:12 | 51.22455 | 3.68868 | 24080 ft | 425 kts | 299° |
| 2026-05-07 14:12 | 51.23965 | 3.64818 | 24075 ft | 425 kts | 299° |
| 2026-05-07 14:12 | 51.25475 | 3.60762 | 24075 ft | 424 kts | 299° |
| 2026-05-07 14:13 | 51.26982 | 3.56708 | 24079 ft | 424 kts | 299° |
| 2026-05-07 14:13 | 51.28487 | 3.52658 | 24082 ft | 424 kts | 299° |
| 2026-05-07 14:13 | 51.29992 | 3.48595 | 24081 ft | 424 kts | 299° |
| 2026-05-07 14:13 | 51.31493 | 3.44531 | 24075 ft | 424 kts | 299° |
| 2026-05-07 14:14 | 51.32988 | 3.40470 | 24073 ft | 424 kts | 299° |
| 2026-05-07 14:14 | 51.34464 | 3.36379 | 24076 ft | 424 kts | 296° |
| 2026-05-07 14:14 | 51.35630 | 3.32069 | 24070 ft | 422 kts | 289° |
| 2026-05-07 14:14 | 51.36667 | 3.27675 | 24069 ft | 422 kts | 289° |
| 2026-05-07 14:15 | 51.37708 | 3.23286 | 24074 ft | 422 kts | 289° |
| 2026-05-07 14:15 | 51.38753 | 3.18891 | 24071 ft | 422 kts | 289° |
| 2026-05-07 14:15 | 51.39795 | 3.14499 | 24081 ft | 422 kts | 289° |
| 2026-05-07 14:15 | 51.40832 | 3.10105 | 24075 ft | 422 kts | 289° |
| 2026-05-07 14:16 | 51.41867 | 3.05704 | 24081 ft | 422 kts | 289° |
| 2026-05-07 14:16 | 51.42901 | 3.01303 | 24076 ft | 422 kts | 289° |
| 2026-05-07 14:16 | 51.43922 | 2.96957 | 24077 ft | 422 kts | 289° |
| 2026-05-07 14:16 | 51.44954 | 2.92550 | 24079 ft | 422 kts | 289° |
| 2026-05-07 14:17 | 51.45986 | 2.88143 | 24084 ft | 422 kts | 289° |
| 2026-05-07 14:17 | 51.47017 | 2.83734 | 24077 ft | 422 kts | 289° |
| 2026-05-07 14:17 | 51.48044 | 2.79327 | 24080 ft | 422 kts | 289° |
| 2026-05-07 14:17 | 51.49069 | 2.74919 | 24076 ft | 422 kts | 289° |
| 2026-05-07 14:18 | 51.50093 | 2.70508 | 24080 ft | 422 kts | 289° |
| 2026-05-07 14:18 | 51.51114 | 2.66095 | 24084 ft | 421 kts | 289° |
| 2026-05-07 14:18 | 51.52129 | 2.61678 | 24077 ft | 421 kts | 289° |
| 2026-05-07 14:18 | 51.53146 | 2.57265 | 24076 ft | 421 kts | 290° |
| 2026-05-07 14:19 | 51.53963 | 2.54428 | 24081 ft | 423 kts | 297° |
| 2026-05-07 14:19 | 51.55574 | 2.50456 | 24087 ft | 425 kts | 307° |
| 2026-05-07 14:19 | 51.57597 | 2.46968 | 24089 ft | 432 kts | 316° |
| 2026-05-07 14:19 | 51.60008 | 2.43960 | 24095 ft | 445 kts | 322° |
| 2026-05-07 14:20 | 51.62532 | 2.41038 | 24088 ft | 449 kts | 322° |
| 2026-05-07 14:20 | 51.65081 | 2.38080 | 24091 ft | 454 kts | 322° |
| 2026-05-07 14:20 | 51.67646 | 2.35094 | 24088 ft | 456 kts | 322° |
| 2026-05-07 14:20 | 51.70215 | 2.32094 | 24093 ft | 456 kts | 322° |
| 2026-05-07 14:21 | 51.72660 | 2.28862 | 24091 ft | 454 kts | 313° |
| 2026-05-07 14:21 | 51.74682 | 2.24944 | 24095 ft | 458 kts | 302° |
| 2026-05-07 14:21 | 51.76237 | 2.20421 | 24095 ft | 463 kts | 292° |
| 2026-05-07 14:21 | 51.77241 | 2.15490 | 24093 ft | 463 kts | 281° |
| 2026-05-07 14:22 | 51.77639 | 2.08581 | 24093 ft | 462 kts | 267° |
| 2026-05-07 14:22 | 51.77471 | 2.05161 | 24095 ft | 461 kts | 264° |
| 2026-05-07 14:22 | 51.77163 | 1.99998 | 24093 ft | 461 kts | 264° |
| 2026-05-07 14:22 | 51.76850 | 1.94846 | 24099 ft | 461 kts | 264° |
| 2026-05-07 14:23 | 51.76533 | 1.89685 | 24093 ft | 462 kts | 263° |
| 2026-05-07 14:23 | 51.76217 | 1.84531 | 24097 ft | 462 kts | 263° |
| 2026-05-07 14:23 | 51.75898 | 1.79374 | 24092 ft | 462 kts | 263° |
| 2026-05-07 14:23 | 51.75576 | 1.74217 | 24084 ft | 461 kts | 263° |
| 2026-05-07 14:24 | 51.75252 | 1.69066 | 24083 ft | 461 kts | 263° |
| 2026-05-07 14:24 | 51.74932 | 1.63977 | 24081 ft | 461 kts | 263° |
| 2026-05-07 14:24 | 51.74609 | 1.58835 | 24079 ft | 461 kts | 263° |
| 2026-05-07 14:24 | 51.74280 | 1.53624 | 24077 ft | 461 kts | 263° |
| 2026-05-07 14:25 | 51.73959 | 1.48542 | 24070 ft | 461 kts | 263° |
| 2026-05-07 14:25 | 51.73631 | 1.43397 | 24054 ft | 461 kts | 263° |
| 2026-05-07 14:25 | 51.73298 | 1.38258 | 23588 ft | 457 kts | 263° |
| 2026-05-07 14:25 | 51.72963 | 1.33175 | 23207 ft | 455 kts | 263° |
| 2026-05-07 14:26 | 51.72627 | 1.28131 | 22152 ft | 448 kts | 263° |
| 2026-05-07 14:26 | 51.72299 | 1.23207 | 21266 ft | 435 kts | 263° |
| 2026-05-07 14:26 | 51.71979 | 1.18417 | 20390 ft | 425 kts | 263° |
| 2026-05-07 14:26 | 51.71664 | 1.13729 | 19526 ft | 416 kts | 263° |
| 2026-05-07 14:27 | 51.71352 | 1.09136 | 18710 ft | 411 kts | 263° |
| 2026-05-07 14:27 | 51.71037 | 1.04556 | 17813 ft | 410 kts | 263° |
| 2026-05-07 14:27 | 51.70721 | 0.99997 | 16971 ft | 407 kts | 263° |
| 2026-05-07 14:27 | 51.70410 | 0.95475 | 16148 ft | 405 kts | 262° |
| 2026-05-07 14:28 | 51.70098 | 0.90951 | 15150 ft | 408 kts | 262° |
| 2026-05-07 14:28 | 51.69782 | 0.86388 | 14160 ft | 411 kts | 263° |
| 2026-05-07 14:28 | 51.69469 | 0.81865 | 13900 ft | 395 kts | 262° |
| 2026-05-07 14:28 | 51.69173 | 0.77573 | 13768 ft | 376 kts | 262° |
| 2026-05-07 14:29 | 51.68891 | 0.73516 | 13624 ft | 350 kts | 262° |
| 2026-05-07 14:29 | 51.68629 | 0.69777 | 13484 ft | 322 kts | 262° |
| 2026-05-07 14:29 | 51.68382 | 0.66283 | 13092 ft | 308 kts | 262° |
| 2026-05-07 14:29 | 51.68139 | 0.62891 | 12495 ft | 302 kts | 262° |
| 2026-05-07 14:30 | 51.67895 | 0.59552 | 11847 ft | 299 kts | 261° |
| 2026-05-07 14:30 | 51.67652 | 0.56245 | 11212 ft | 295 kts | 261° |
| 2026-05-07 14:30 | 51.67413 | 0.52990 | 10768 ft | 290 kts | 262° |
| 2026-05-07 14:30 | 51.67177 | 0.49779 | 10522 ft | 288 kts | 262° |
| 2026-05-07 14:31 | 51.66943 | 0.46582 | 10279 ft | 287 kts | 262° |
| 2026-05-07 14:31 | 51.66708 | 0.43393 | 10030 ft | 286 kts | 262° |
| 2026-05-07 14:31 | 51.66476 | 0.40256 | 9632 ft | 286 kts | 262° |
| 2026-05-07 14:31 | 51.66241 | 0.37062 | 9191 ft | 288 kts | 262° |
| 2026-05-07 14:32 | 51.66008 | 0.33882 | 8875 ft | 285 kts | 262° |
| 2026-05-07 14:32 | 51.65772 | 0.30721 | 8506 ft | 284 kts | 262° |
| 2026-05-07 14:32 | 51.65664 | 0.29283 | 8375 ft | 282 kts | 262° |
| 2026-05-07 14:32 | 51.65459 | 0.26554 | 7988 ft | 279 kts | 262° |
| 2026-05-07 14:33 | 51.65226 | 0.23462 | 7433 ft | 276 kts | 262° |
| 2026-05-07 14:33 | 51.65002 | 0.20497 | 7290 ft | 257 kts | 262° |
| 2026-05-07 14:33 | 51.64792 | 0.17732 | 7165 ft | 242 kts | 261° |
| 2026-05-07 14:33 | 51.64588 | 0.15055 | 7071 ft | 240 kts | 262° |
| 2026-05-07 14:34 | 51.64415 | 0.12381 | 7077 ft | 241 kts | 263° |
| 2026-05-07 14:34 | 51.64270 | 0.09692 | 7080 ft | 240 kts | 263° |
| 2026-05-07 14:34 | 51.64132 | 0.07017 | 7080 ft | 240 kts | 264° |
| 2026-05-07 14:34 | 51.63993 | 0.04337 | 7080 ft | 240 kts | 264° |
| 2026-05-07 14:35 | 51.63856 | 0.01744 | 7083 ft | 240 kts | 263° |
| 2026-05-07 14:35 | 51.63710 | -0.00932 | 7081 ft | 240 kts | 264° |
| 2026-05-07 14:35 | 51.63562 | -0.03601 | 7082 ft | 239 kts | 264° |
| 2026-05-07 14:35 | 51.63414 | -0.06261 | 7077 ft | 238 kts | 263° |
| 2026-05-07 14:36 | 51.63265 | -0.08908 | 7079 ft | 238 kts | 264° |
| 2026-05-07 14:36 | 51.63115 | -0.11563 | 7080 ft | 238 kts | 264° |
| 2026-05-07 14:36 | 51.62965 | -0.14216 | 7082 ft | 238 kts | 264° |
| 2026-05-07 14:36 | 51.62813 | -0.16871 | 7085 ft | 238 kts | 263° |
| 2026-05-07 14:37 | 51.62660 | -0.19526 | 7083 ft | 238 kts | 263° |
| 2026-05-07 14:37 | 51.62354 | -0.24832 | 7084 ft | 238 kts | 263° |
| 2026-05-07 14:37 | 51.62203 | -0.27485 | 7084 ft | 238 kts | 263° |
| 2026-05-07 14:38 | 51.62052 | -0.30099 | 7084 ft | 238 kts | 263° |
| 2026-05-07 14:38 | 51.61897 | -0.32748 | 7057 ft | 238 kts | 263° |
| 2026-05-07 14:38 | 51.61744 | -0.35353 | 7057 ft | 238 kts | 263° |
| 2026-05-07 14:38 | 51.61588 | -0.38007 | 7056 ft | 238 kts | 263° |
| 2026-05-07 14:39 | 51.61431 | -0.40654 | 7059 ft | 238 kts | 263° |
| 2026-05-07 14:39 | 51.61273 | -0.43310 | 7060 ft | 238 kts | 263° |
| 2026-05-07 14:39 | 51.61115 | -0.45964 | 7059 ft | 238 kts | 263° |
| 2026-05-07 14:39 | 51.60957 | -0.48617 | 7060 ft | 238 kts | 263° |
| 2026-05-07 14:40 | 51.60796 | -0.51266 | 7058 ft | 238 kts | 263° |
| 2026-05-07 14:40 | 51.60634 | -0.53905 | 7055 ft | 238 kts | 263° |
| 2026-05-07 14:40 | 51.60470 | -0.56562 | 7057 ft | 238 kts | 263° |
| 2026-05-07 14:40 | 51.60306 | -0.59212 | 7058 ft | 238 kts | 263° |
| 2026-05-07 14:41 | 51.60146 | -0.61860 | 7054 ft | 238 kts | 263° |
| 2026-05-07 14:41 | 51.59988 | -0.64507 | 7054 ft | 238 kts | 263° |
| 2026-05-07 14:41 | 51.59826 | -0.67175 | 6863 ft | 240 kts | 263° |
| 2026-05-07 14:41 | 51.59660 | -0.69836 | 6579 ft | 238 kts | 263° |
| 2026-05-07 14:42 | 51.59495 | -0.72471 | 6316 ft | 236 kts | 263° |
| 2026-05-07 14:42 | 51.59332 | -0.75089 | 6052 ft | 234 kts | 262° |
| 2026-05-07 14:42 | 51.58845 | -0.77504 | 5714 ft | 233 kts | 236° |
| 2026-05-07 14:42 | 51.57636 | -0.79191 | 5358 ft | 234 kts | 205° |
| 2026-05-07 14:43 | 51.56037 | -0.79632 | 5020 ft | 236 kts | 178° |
| 2026-05-07 14:43 | 51.54394 | -0.79489 | 4685 ft | 236 kts | 178° |
| 2026-05-07 14:43 | 51.52753 | -0.79396 | 4338 ft | 236 kts | 179° |
| 2026-05-07 14:43 | 51.51118 | -0.79317 | 4002 ft | 235 kts | 179° |
| 2026-05-07 14:44 | 51.49484 | -0.79227 | 3691 ft | 234 kts | 176° |
| 2026-05-07 14:44 | 51.48009 | -0.78327 | 3380 ft | 227 kts | 137° |
| 2026-05-07 14:44 | 51.47286 | -0.76164 | 3107 ft | 224 kts | 96° |
| 2026-05-07 14:44 | 51.47506 | -0.73766 | 3012 ft | 213 kts | 76° |
| 2026-05-07 14:45 | 51.47667 | -0.71446 | 2971 ft | 206 kts | 90° |
| 2026-05-07 14:45 | 51.47661 | -0.69201 | 2661 ft | 197 kts | 91° |
| 2026-05-07 14:45 | 51.47663 | -0.67132 | 2409 ft | 173 kts | 91° |
| 2026-05-07 14:45 | 51.47670 | -0.65328 | 2193 ft | 153 kts | 91° |
| 2026-05-07 14:46 | 51.47678 | -0.63669 | 1990 ft | 145 kts | 90° |
| 2026-05-07 14:46 | 51.47686 | -0.62064 | 1791 ft | 143 kts | 90° |
| 2026-05-07 14:46 | 51.47693 | -0.60476 | 1602 ft | 142 kts | 90° |
| 2026-05-07 14:46 | 51.47701 | -0.58899 | 1408 ft | 142 kts | 91° |
| 2026-05-07 14:47 | 51.47709 | -0.57342 | 1219 ft | 141 kts | 90° |
| 2026-05-07 14:47 | 51.47716 | -0.55755 | 1022 ft | 140 kts | 90° |
| 2026-05-07 14:47 | 51.47723 | -0.54196 | 828 ft | 139 kts | 90° |
| 2026-05-07 14:47 | 51.47730 | -0.52658 | 640 ft | 137 kts | 90° |
| 2026-05-07 14:48 | 51.47737 | -0.51143 | 458 ft | 135 kts | 89° |
| 2026-05-07 14:48 | 51.47743 | -0.49671 | 280 ft | 133 kts | 89° |
| 2026-05-07 14:48 | 51.47751 | -0.48181 | 102 ft | 132 kts | 89° |
| 2026-05-07 14:48 | 51.47758 | -0.46911 | 88 ft | 91 kts | 90° |
| 2026-05-07 14:49 | 51.47757 | -0.46170 | 89 ft | 45 kts | 89° |
| 2026-05-07 14:49 | 51.47754 | -0.45690 | 86 ft | 35 kts | 91° |
| 2026-05-07 14:49 | 51.47686 | -0.45481 | 87 ft | 16 kts | 167° |
| 2026-05-07 14:49 | 51.47602 | -0.45509 | 86 ft | 8 kts | 238° |
| 2026-05-07 14:50 | 51.47597 | -0.45616 | 86 ft | 11 kts | 271° |
| 2026-05-07 14:50 | 51.47597 | -0.45681 | 86 ft | 5 kts | 270° |
| 2026-05-07 14:50 | 51.47597 | -0.45731 | 86 ft | 5 kts | 269° |
| 2026-05-07 14:50 | 51.47597 | -0.45747 | 86 ft | 1 kts | 269° |
| 2026-05-07 14:51 | 51.47592 | -0.45760 | 90 ft | 1 kts | 215° |
| 2026-05-07 14:51 | 51.47533 | -0.45806 | 88 ft | 18 kts | 228° |
| 2026-05-07 14:51 | 51.47517 | -0.46028 | 86 ft | 22 kts | 270° |
| 2026-05-07 14:51 | 51.47517 | -0.46299 | 86 ft | 25 kts | 270° |
| 2026-05-07 14:52 | 51.47515 | -0.46586 | 86 ft | 25 kts | 269° |
| 2026-05-07 14:52 | 51.47514 | -0.46647 | 86 ft | 0 kts | 269° |
| 2026-05-07 14:53 | 51.47511 | -0.46701 | 87 ft | 10 kts | 262° |
| 2026-05-07 14:54 | 51.47496 | -0.46824 | 88 ft | 13 kts | 264° |
| 2026-05-07 14:54 | 51.47493 | -0.46979 | 86 ft | 15 kts | 270° |
| 2026-05-07 14:54 | 51.47493 | -0.47163 | 86 ft | 18 kts | 269° |
| 2026-05-07 14:54 | 51.47490 | -0.47370 | 86 ft | 19 kts | 269° |
| 2026-05-07 14:55 | 51.47487 | -0.47597 | 89 ft | 22 kts | 269° |
| 2026-05-07 14:55 | 51.47488 | -0.47829 | 88 ft | 14 kts | 272° |
| 2026-05-07 14:55 | 51.47491 | -0.48002 | 86 ft | 17 kts | 270° |
| 2026-05-07 14:55 | 51.47490 | -0.48206 | 86 ft | 18 kts | 269° |
| 2026-05-07 14:56 | 51.47482 | -0.48335 | 86 ft | 9 kts | 240° |
| 2026-05-07 14:56 | 51.47418 | -0.48361 | 86 ft | 11 kts | 178° |
| 2026-05-07 14:56 | 51.47331 | -0.48359 | 86 ft | 13 kts | 179° |
| 2026-05-07 14:56 | 51.47275 | -0.48399 | 91 ft | 9 kts | 240° |
| 2026-05-07 14:57 | 51.47240 | -0.48473 | 88 ft | 9 kts | 197° |
| 2026-05-07 14:57 | 51.47177 | -0.48473 | 86 ft | 9 kts | 179° |
| 2026-05-07 14:57 | 51.47131 | -0.48473 | 87 ft | 3 kts | 186° |
| 2026-05-07 14:57 | 51.47101 | -0.48475 | 88 ft | 5 kts | 190° |
| 2026-05-07 14:58 | 51.47087 | -0.48512 | 88 ft | 4 kts | 264° |
| 2026-05-07 14:58 | 51.47087 | -0.48569 | 86 ft | 6 kts | 270° |
| 2026-05-07 14:58 | 51.47087 | -0.48584 | 86 ft | 0 kts | 269° |